sensor_id;sensor_type;location;lat;lon;timestamp;P1;P2;P0
34240;PMS7003;20503;50.200;19.508;2023-04-06T18:41:55;51;35;19
34240;PMS7003;20503;50.200;19.508;2023-04-06T18:47:03;49;35;20
34240;PMS7003;20503;50.200;19.508;2023-04-06T18:52:11;29;26;18
34240;PMS7003;20503;50.200;19.508;2023-04-06T18:57:18;38;28;16
34240;PMS7003;20503;50.200;19.508;2023-04-06T19:02:26;32;27;17
34240;PMS7003;20503;50.200;19.508;2023-04-06T19:07:34;40;31;18
34240;PMS7003;20503;50.200;19.508;2023-04-06T19:12:42;39;29;18
34240;PMS7003;20503;50.200;19.508;2023-04-06T19:17:50;44;31;17
34240;PMS7003;20503;50.200;19.508;2023-04-06T19:22:58;45;34;20
34240;PMS7003;20503;50.200;19.508;2023-04-06T19:28:05;44;34;21
34240;PMS7003;20503;50.200;19.508;2023-04-06T19:33:13;40;30;19
34240;PMS7003;20503;50.200;19.508;2023-04-06T19:38:20;39;31;19
34240;PMS7003;20503;50.200;19.508;2023-04-06T19:43:28;46;30;20
34240;PMS7003;20503;50.200;19.508;2023-04-06T19:48:41;33;28;18
34240;PMS7003;20503;50.200;19.508;2023-04-06T19:53:50;47;36;20
34240;PMS7003;20503;50.200;19.508;2023-04-06T19:58:58;53;38;22
34240;PMS7003;20503;50.200;19.508;2023-04-06T20:04:06;42;29;17
34240;PMS7003;20503;50.200;19.508;2023-04-06T20:09:14;50;37;22
34240;PMS7003;20503;50.200;19.508;2023-04-06T20:14:22;40;26;17
34240;PMS7003;20503;50.200;19.508;2023-04-06T20:19:30;41;31;17
34240;PMS7003;20503;50.200;19.508;2023-04-06T20:24:38;45;34;22
34240;PMS7003;20503;50.200;19.508;2023-04-06T20:29:46;43;32;20
34240;PMS7003;20503;50.200;19.508;2023-04-06T20:34:54;47;34;20
34240;PMS7003;20503;50.200;19.508;2023-04-06T20:40:02;41;28;17
34240;PMS7003;20503;50.200;19.508;2023-04-06T20:45:10;45;33;21
34240;PMS7003;20503;50.200;19.508;2023-04-06T20:50:19;45;33;19
34240;PMS7003;20503;50.200;19.508;2023-04-06T20:55:26;38;27;15
34240;PMS7003;20503;50.200;19.508;2023-04-06T21:00:35;44;32;18
34240;PMS7003;20503;50.200;19.508;2023-04-06T21:10:50;47;35;21
34240;PMS7003;20503;50.200;19.508;2023-04-06T21:15:58;40;29;17
34240;PMS7003;20503;50.200;19.508;2023-04-06T21:21:07;39;28;16
34240;PMS7003;20503;50.200;19.508;2023-04-06T21:26:14;32;28;18
34240;PMS7003;20503;50.200;19.508;2023-04-06T21:31:22;40;32;18
34240;PMS7003;20503;50.200;19.508;2023-04-06T21:36:30;40;30;17
34240;PMS7003;20503;50.200;19.508;2023-04-06T21:41:38;34;28;15
34240;PMS7003;20503;50.200;19.508;2023-04-06T21:46:46;42;29;18
34240;PMS7003;20503;50.200;19.508;2023-04-06T21:51:54;41;31;19
34240;PMS7003;20503;50.200;19.508;2023-04-06T21:57:02;27;24;15
34240;PMS7003;20503;50.200;19.508;2023-04-06T22:02:10;33;26;16
34240;PMS7003;20503;50.200;19.508;2023-04-06T22:07:18;32;25;15
34240;PMS7003;20503;50.200;19.508;2023-04-06T22:12:25;27;19;12
34240;PMS7003;20503;50.200;19.508;2023-04-06T22:17:34;32;23;14
34240;PMS7003;20503;50.200;19.508;2023-04-06T22:22:42;38;28;17
34240;PMS7003;20503;50.200;19.508;2023-04-06T22:27:50;39;25;14
34240;PMS7003;20503;50.200;19.508;2023-04-06T22:32:58;37;27;15
34240;PMS7003;20503;50.200;19.508;2023-04-06T22:38:06;34;23;16
34240;PMS7003;20503;50.200;19.508;2023-04-06T22:43:15;39;29;18
34240;PMS7003;20503;50.200;19.508;2023-04-06T22:48:22;31;24;15
34240;PMS7003;20503;50.200;19.508;2023-04-06T22:53:30;42;28;17
34240;PMS7003;20503;50.200;19.508;2023-04-06T22:58:38;35;23;16
34240;PMS7003;20503;50.200;19.508;2023-04-06T23:03:46;29;23;14
34240;PMS7003;20503;50.200;19.508;2023-04-06T23:08:54;37;27;15
34240;PMS7003;20503;50.200;19.508;2023-04-06T23:14:02;42;30;18
34240;PMS7003;20503;50.200;19.508;2023-04-06T23:19:09;31;27;14
34240;PMS7003;20503;50.200;19.508;2023-04-06T23:24:17;27;22;14
34240;PMS7003;20503;50.200;19.508;2023-04-06T23:29:25;28;25;13
34240;PMS7003;20503;50.200;19.508;2023-04-06T23:34:32;23;16;12
34240;PMS7003;20503;50.200;19.508;2023-04-06T23:39:40;26;18;12
34240;PMS7003;20503;50.200;19.508;2023-04-06T23:44:48;26;20;11
34240;PMS7003;20503;50.200;19.508;2023-04-06T23:49:56;22;16;10
34240;PMS7003;20503;50.200;19.508;2023-04-06T23:55:04;21;17;12
